createdAt,value
2023-01-15T00:02:23.032Z,23.73
2023-01-15T00:04:51.680Z,25.10
2023-01-15T00:07:21.071Z,23.80
2023-01-15T00:09:48.401Z,22.87
2023-01-15T00:12:15.698Z,23.50
2023-01-15T00:14:43.026Z,22.87
2023-01-15T00:17:10.393Z,24.50
2023-01-15T00:19:37.771Z,24.17
2023-01-15T00:22:05.193Z,25.50
2023-01-15T00:24:51.123Z,26.97
2023-01-15T00:27:37.229Z,23.43
2023-01-15T00:30:04.729Z,24.27
2023-01-15T00:32:32.048Z,27.53
2023-01-15T00:34:59.944Z,23.57
2023-01-15T00:37:28.328Z,22.60
2023-01-15T00:39:55.644Z,21.97
2023-01-15T00:42:23.028Z,20.70
2023-01-15T00:44:50.460Z,23.93
2023-01-15T00:47:17.890Z,22.40
2023-01-15T00:49:45.425Z,23.73
2023-01-15T00:52:13.120Z,21.30
2023-01-15T00:54:40.577Z,19.17
2023-01-15T00:57:07.959Z,20.90
2023-01-15T00:59:35.476Z,22.27
2023-01-15T01:02:02.944Z,18.03
2023-01-15T01:04:30.304Z,20.33
2023-01-15T01:06:59.290Z,18.73
2023-01-15T01:09:26.593Z,17.87
2023-01-15T01:11:53.939Z,18.13
2023-01-15T01:14:21.826Z,18.17
2023-01-15T01:16:49.324Z,18.00
2023-01-15T01:19:17.895Z,19.73
2023-01-15T01:21:46.080Z,17.00
2023-01-15T01:24:15.090Z,17.30
2023-01-15T01:26:44.430Z,17.90
2023-01-15T01:29:15.826Z,16.90
2023-01-15T01:31:43.652Z,18.07
2023-01-15T01:34:11.605Z,17.70
2023-01-15T01:36:39.906Z,17.30
2023-01-15T01:39:07.844Z,14.40
2023-01-15T01:41:35.559Z,16.27
2023-01-15T01:44:28.882Z,17.20
2023-01-15T01:46:56.275Z,15.23
2023-01-15T01:49:26.751Z,15.60
2023-01-15T01:51:58.507Z,13.77
2023-01-15T01:54:26.699Z,14.67
2023-01-15T01:56:54.474Z,14.70
2023-01-15T01:59:22.599Z,14.70
2023-01-15T02:01:50.356Z,17.90
2023-01-15T02:04:20.138Z,14.87
2023-01-15T02:06:47.504Z,19.23
2023-01-15T02:09:14.876Z,16.80
2023-01-15T02:11:42.900Z,17.07
2023-01-15T02:14:25.672Z,15.97
2023-01-15T02:16:55.645Z,15.97
2023-01-15T02:19:36.269Z,16.80
2023-01-15T02:22:15.255Z,15.27
2023-01-15T02:25:01.313Z,15.77
2023-01-15T02:27:28.797Z,15.17
2023-01-15T02:30:02.360Z,16.13
2023-01-15T02:32:37.170Z,17.00
2023-01-15T02:35:11.400Z,15.50
2023-01-15T02:37:45.334Z,16.23
2023-01-15T02:40:15.278Z,15.67
2023-01-15T02:42:44.630Z,14.90
2023-01-15T02:45:15.895Z,14.47
2023-01-15T02:47:46.863Z,14.27
2023-01-15T02:50:15.821Z,14.87
2023-01-15T02:52:46.001Z,14.97
2023-01-15T02:55:18.675Z,14.00
2023-01-15T02:57:48.754Z,16.27
2023-01-15T03:00:20.656Z,14.50
2023-01-15T03:02:52.115Z,15.47
2023-01-15T03:05:23.348Z,14.27
2023-01-15T03:07:52.366Z,16.13
2023-01-15T03:10:20.676Z,15.80
2023-01-15T03:13:02.846Z,15.37
2023-01-15T03:16:04.103Z,14.10
2023-01-15T03:18:35.602Z,16.03
2023-01-15T03:21:08.898Z,16.67
2023-01-15T07:35:32.160Z,6.07
2023-01-15T07:38:06.490Z,5.30
2023-01-15T07:40:33.986Z,7.70
2023-01-15T07:43:19.897Z,6.40
2023-01-15T07:46:06.722Z,6.13
2023-01-15T07:48:53.005Z,5.80
2023-01-15T07:51:20.465Z,8.17
2023-01-15T07:53:47.791Z,5.83
2023-01-15T07:56:15.472Z,7.57
2023-01-15T07:58:49.210Z,7.03
2023-01-15T08:01:16.959Z,9.40
2023-01-15T08:03:44.459Z,6.23
2023-01-15T08:06:11.886Z,7.87
2023-01-15T08:08:39.466Z,6.00
2023-01-15T08:11:25.605Z,5.70
2023-01-15T08:14:11.622Z,6.97
2023-01-15T08:16:39.445Z,6.17
2023-01-15T08:19:06.955Z,5.57
2023-01-15T08:21:34.397Z,4.87
2023-01-15T08:24:02.091Z,5.53
2023-01-15T08:26:29.452Z,5.27
2023-01-15T08:28:57.158Z,6.60
2023-01-15T08:31:24.508Z,5.30
2023-01-15T08:33:52.279Z,6.53
2023-01-15T08:36:19.843Z,6.93
2023-01-15T08:38:49.944Z,5.93
2023-01-15T08:41:17.326Z,5.97
2023-01-15T08:43:45.951Z,7.20
2023-01-15T08:46:13.496Z,5.53
2023-01-15T08:48:40.930Z,5.07
2023-01-15T08:51:09.595Z,5.57
2023-01-15T08:53:37.605Z,8.67
2023-01-15T08:56:05.788Z,5.53
2023-01-15T08:58:34.034Z,6.17
2023-01-15T09:01:05.833Z,7.33
2023-01-15T09:03:33.732Z,6.90
2023-01-15T09:06:01.811Z,7.00
2023-01-15T09:08:30.109Z,5.50
2023-01-15T09:11:02.005Z,5.43
2023-01-15T09:13:30.500Z,6.73
2023-01-15T09:16:01.785Z,7.73
2023-01-15T09:18:29.650Z,7.43
2023-01-15T09:20:58.139Z,5.63
2023-01-15T09:23:26.112Z,7.30
2023-01-15T09:26:01.155Z,7.07
2023-01-15T09:28:30.171Z,7.07
2023-01-15T09:30:58.133Z,8.07
2023-01-15T09:33:26.289Z,6.43
2023-01-15T09:35:54.320Z,6.47
2023-01-15T09:38:24.291Z,6.47
2023-01-15T09:40:52.304Z,5.83
2023-01-15T09:43:26.186Z,7.40
2023-01-15T09:46:16.086Z,7.43
2023-01-15T09:48:48.235Z,6.90
2023-01-15T09:51:15.951Z,7.27
2023-01-15T09:53:43.556Z,12.07
2023-01-15T09:56:15.015Z,7.10
2023-01-15T09:58:42.436Z,7.37
2023-01-15T10:01:16.221Z,8.50
2023-01-15T10:03:44.489Z,9.03
2023-01-15T10:06:22.199Z,7.33
2023-01-15T10:08:53.616Z,7.53
2023-01-15T10:11:48.652Z,6.77
2023-01-15T10:14:22.280Z,6.73
2023-01-15T10:16:54.575Z,7.50
2023-01-15T10:19:22.283Z,7.73
2023-01-15T10:21:55.677Z,8.77
2023-01-15T10:24:39.106Z,8.00
2023-01-15T10:27:19.159Z,9.33
2023-01-15T10:29:50.482Z,8.13
2023-01-15T10:32:24.399Z,6.40
2023-01-15T10:35:10.414Z,7.47
2023-01-15T10:37:50.051Z,8.73
2023-01-15T10:40:40.836Z,7.10
2023-01-15T10:43:23.328Z,7.67
2023-01-15T10:45:53.837Z,9.30
2023-01-15T10:48:30.577Z,11.10
2023-01-15T10:50:59.620Z,8.67
2023-01-15T10:53:35.786Z,10.67
2023-01-15T10:56:09.197Z,9.77
2023-01-15T10:58:40.808Z,10.07
2023-01-15T11:01:14.114Z,8.20
2023-01-15T11:03:43.568Z,7.33
2023-01-15T11:06:16.248Z,7.90
2023-01-15T11:09:08.481Z,10.60
2023-01-15T11:11:57.587Z,10.73
2023-01-15T11:14:55.660Z,10.87
2023-01-15T11:17:48.738Z,8.83
2023-01-15T11:20:28.364Z,11.87
2023-01-15T11:22:57.364Z,9.07
2023-01-15T11:25:29.287Z,10.10
2023-01-15T11:27:56.765Z,10.77
2023-01-15T11:30:28.548Z,9.87
2023-01-15T11:32:57.850Z,10.13
2023-01-15T11:35:25.707Z,12.77
2023-01-15T11:38:03.198Z,10.47
2023-01-15T11:40:30.669Z,12.57
2023-01-15T11:43:16.866Z,9.73
2023-01-15T11:46:06.873Z,9.87
2023-01-15T11:49:06.564Z,11.17
2023-01-15T11:51:42.636Z,12.47
2023-01-15T11:54:11.943Z,10.40
2023-01-15T11:56:41.956Z,9.20
2023-01-15T11:59:20.120Z,11.63
2023-01-15T12:01:59.955Z,11.37
2023-01-15T12:04:30.672Z,10.43
2023-01-15T12:06:58.725Z,9.97
2023-01-15T12:09:28.813Z,12.40
2023-01-15T12:12:28.653Z,11.57
2023-01-15T12:15:01.723Z,11.97
2023-01-15T12:17:53.668Z,10.70
2023-01-15T12:20:21.035Z,11.03
2023-01-15T12:23:06.122Z,12.47
2023-01-15T12:25:39.392Z,11.00
2023-01-15T12:28:07.938Z,12.93
2023-01-15T12:30:45.176Z,12.87
2023-01-15T12:33:21.604Z,11.10
2023-01-15T12:35:57.168Z,12.63
2023-01-15T12:38:44.970Z,11.93
2023-01-15T12:41:16.906Z,13.17
2023-01-15T12:44:08.658Z,14.33
2023-01-15T12:46:37.580Z,12.30
2023-01-15T12:49:27.743Z,13.07
2023-01-15T12:52:08.234Z,13.27
2023-01-15T12:54:39.871Z,13.80
2023-01-15T12:57:16.066Z,13.07
2023-01-15T12:59:48.544Z,11.57
2023-01-15T13:02:22.147Z,14.33
2023-01-15T13:04:49.701Z,11.60
2023-01-15T13:07:27.783Z,13.10
2023-01-15T13:10:07.063Z,14.40
2023-01-15T13:12:34.507Z,13.37
2023-01-15T13:15:02.705Z,15.80
2023-01-15T13:17:44.855Z,14.30
2023-01-15T13:20:21.251Z,13.63
2023-01-15T13:22:53.754Z,12.27
2023-01-15T13:25:27.246Z,17.80
2023-01-15T13:28:05.273Z,14.50
2023-01-15T13:30:38.434Z,14.83
2023-01-15T13:33:13.137Z,14.53
2023-01-15T13:35:48.454Z,13.93
2023-01-15T13:38:19.370Z,15.30
2023-01-15T13:40:51.925Z,12.00
2023-01-15T13:43:36.833Z,13.50
2023-01-15T13:46:05.023Z,14.80
2023-01-15T13:48:32.722Z,13.77
2023-01-15T13:51:53.173Z,13.63
2023-01-15T13:54:24.064Z,18.13
2023-01-15T13:56:51.428Z,13.30
2023-01-15T13:59:37.863Z,15.03
2023-01-15T14:02:14.786Z,13.30
2023-01-15T14:04:42.121Z,14.83
2023-01-15T14:08:01.570Z,14.83
2023-01-15T14:10:32.081Z,16.70
2023-01-15T14:13:08.079Z,15.60
2023-01-15T14:15:40.399Z,15.17
2023-01-15T14:18:16.933Z,13.47
2023-01-15T14:20:53.413Z,12.93
2023-01-15T14:23:32.985Z,12.80
2023-01-15T14:26:20.201Z,14.90
2023-01-15T14:29:06.401Z,13.93
2023-01-15T14:31:52.093Z,14.30
2023-01-15T14:34:28.579Z,13.33
2023-01-15T14:37:01.327Z,14.27
2023-01-15T14:39:40.668Z,13.33
2023-01-15T14:42:27.286Z,13.07
2023-01-15T14:45:02.785Z,14.07
2023-01-15T14:47:33.271Z,12.73
2023-01-15T14:50:20.941Z,15.30
2023-01-15T14:52:49.918Z,14.30
2023-01-15T14:55:18.127Z,12.17
2023-01-15T14:57:49.262Z,11.93
2023-01-15T15:00:18.106Z,11.37
2023-01-15T15:02:48.139Z,11.87
2023-01-15T15:05:17.174Z,10.63
2023-01-15T15:07:45.650Z,12.93
2023-01-15T15:10:22.328Z,12.03
2023-01-15T15:12:55.930Z,11.53
2023-01-15T15:15:26.227Z,12.30
2023-01-15T15:18:06.200Z,11.37
2023-01-15T15:20:51.808Z,13.17
2023-01-15T15:23:47.173Z,11.73
2023-01-15T15:26:41.219Z,14.87
2023-01-15T15:29:11.321Z,14.33
2023-01-15T15:31:40.282Z,12.47
2023-01-15T15:34:08.609Z,12.73
2023-01-15T15:36:39.295Z,12.47
2023-01-15T15:39:33.334Z,11.83
2023-01-15T15:42:20.036Z,10.23
2023-01-15T15:45:14.932Z,12.13
2023-01-15T15:48:01.417Z,14.83
2023-01-15T15:50:31.344Z,12.57
2023-01-15T15:52:59.074Z,10.80
2023-01-15T15:55:28.688Z,11.00
2023-01-15T15:57:58.213Z,11.10
2023-01-15T16:00:33.735Z,15.27
2023-01-15T16:03:04.921Z,10.60
2023-01-15T16:05:32.993Z,12.80
2023-01-15T16:08:20.606Z,15.00
2023-01-15T16:10:51.286Z,11.10
2023-01-15T16:13:26.841Z,9.67
2023-01-15T16:15:56.364Z,13.40
2023-01-15T16:18:28.978Z,12.80
2023-01-15T16:20:57.206Z,11.30
2023-01-15T16:23:26.643Z,10.93
2023-01-15T16:26:04.003Z,9.10
2023-01-15T16:28:38.010Z,12.33
2023-01-15T16:31:05.672Z,13.20
2023-01-15T16:33:33.197Z,11.70
2023-01-15T16:36:04.837Z,16.67
2023-01-15T16:39:04.035Z,11.23
2023-01-15T16:41:38.406Z,11.73
2023-01-15T16:44:06.742Z,12.63
2023-01-15T16:46:36.032Z,13.27
2023-01-15T16:49:22.256Z,12.93
2023-01-15T16:51:50.460Z,10.80
2023-01-15T16:54:41.780Z,12.60
2023-01-15T16:57:29.897Z,16.53
2023-01-15T16:59:59.692Z,14.20
2023-01-15T17:02:31.167Z,14.50
2023-01-15T17:04:58.806Z,13.77
2023-01-15T17:07:39.117Z,14.27
2023-01-15T17:10:17.868Z,14.67
2023-01-15T17:12:45.468Z,14.97
2023-01-15T17:15:15.380Z,14.03
2023-01-15T17:17:43.256Z,16.20
2023-01-15T17:20:12.634Z,15.80
2023-01-15T17:22:42.246Z,17.80
2023-01-15T17:25:31.117Z,16.33
2023-01-15T17:27:59.595Z,15.43
2023-01-15T17:30:34.734Z,18.47
2023-01-15T17:33:02.984Z,16.20
2023-01-15T17:35:32.242Z,15.60
2023-01-15T17:37:59.635Z,15.80
2023-01-15T17:40:27.264Z,17.47
2023-01-15T17:42:54.658Z,16.57
2023-01-15T17:45:26.552Z,15.43
2023-01-15T17:47:54.392Z,17.13
2023-01-15T17:50:21.795Z,17.60
2023-01-15T17:52:49.608Z,17.63
2023-01-15T17:55:38.291Z,15.70
2023-01-15T17:58:25.005Z,17.40
2023-01-15T18:01:12.202Z,19.57
2023-01-15T18:04:02.247Z,18.17
2023-01-15T18:06:29.695Z,19.33
2023-01-15T18:08:58.502Z,22.83
2023-01-15T18:11:25.835Z,20.37
2023-01-15T18:13:53.186Z,23.67
2023-01-15T18:16:20.969Z,22.80
2023-01-15T18:18:48.660Z,20.23
2023-01-15T18:21:15.946Z,19.43
2023-01-15T18:23:43.300Z,21.00
2023-01-15T18:26:10.705Z,21.07
2023-01-15T18:28:41.362Z,20.60
2023-01-15T18:31:08.870Z,24.50
2023-01-15T18:33:36.397Z,19.70
2023-01-15T18:36:11.814Z,22.73
2023-01-15T18:38:43.075Z,23.67
2023-01-15T18:41:11.823Z,20.63
2023-01-15T18:43:58.311Z,22.17
2023-01-15T18:46:43.896Z,20.53
2023-01-15T18:49:11.551Z,23.43
2023-01-15T18:51:38.917Z,20.27
2023-01-15T18:54:06.977Z,22.03
2023-01-15T18:56:40.538Z,21.50
2023-01-15T18:59:11.564Z,20.73
2023-01-15T19:01:39.636Z,20.53
2023-01-15T19:04:08.719Z,19.50
2023-01-15T19:06:36.529Z,21.43
2023-01-15T19:09:03.987Z,18.67
2023-01-15T19:11:31.632Z,20.23
2023-01-15T19:14:17.831Z,15.83
2023-01-15T19:17:04.124Z,14.10
2023-01-15T19:19:31.529Z,15.10
2023-01-15T19:22:17.478Z,14.70
2023-01-15T19:24:44.788Z,14.07
2023-01-15T19:27:12.125Z,13.77
2023-01-15T19:29:39.470Z,13.87
2023-01-15T19:32:06.893Z,14.23
2023-01-15T19:34:34.631Z,12.73
2023-01-15T19:37:02.095Z,15.30
2023-01-15T19:39:30.291Z,14.33
2023-01-15T19:42:16.694Z,12.37
2023-01-15T19:45:02.797Z,13.53
2023-01-15T19:47:56.380Z,12.27
2023-01-15T19:50:26.476Z,11.63
2023-01-15T19:52:55.074Z,12.73
2023-01-15T19:55:23.553Z,11.07
2023-01-15T19:57:57.156Z,10.17
2023-01-15T20:00:24.937Z,10.97
2023-01-15T20:02:52.317Z,11.57
2023-01-15T20:05:19.989Z,11.30
2023-01-15T20:07:47.382Z,10.73
2023-01-15T20:10:16.070Z,9.13
2023-01-15T20:13:02.301Z,12.50
2023-01-15T20:15:30.754Z,14.20
2023-01-15T20:17:58.391Z,13.13
2023-01-15T20:20:26.384Z,15.20
2023-01-15T20:22:57.783Z,13.77
2023-01-15T20:25:29.427Z,16.60
2023-01-15T20:27:57.483Z,13.20
2023-01-15T20:30:26.016Z,14.10
2023-01-15T20:32:54.712Z,13.93
2023-01-15T20:35:23.586Z,15.20
2023-01-15T20:37:51.610Z,14.13
2023-01-15T20:40:21.928Z,14.17
2023-01-15T20:43:08.050Z,15.87
2023-01-15T20:45:35.590Z,14.20
2023-01-15T20:48:12.390Z,14.07
2023-01-15T20:50:41.593Z,15.77
2023-01-15T20:53:09.776Z,15.87
2023-01-15T20:55:56.992Z,17.87
2023-01-15T20:58:25.434Z,16.00
2023-01-15T21:00:53.338Z,15.97
2023-01-15T21:03:21.059Z,17.40
2023-01-15T21:05:48.694Z,16.73
2023-01-15T21:08:16.048Z,16.13
2023-01-15T21:10:43.596Z,18.77
2023-01-15T21:13:13.015Z,17.43
2023-01-15T21:15:40.849Z,15.77
2023-01-15T21:18:09.213Z,17.17
2023-01-15T21:20:36.518Z,16.73
2023-01-15T21:23:03.964Z,17.73
2023-01-15T21:25:31.269Z,14.73
2023-01-15T21:27:58.709Z,13.50
2023-01-15T21:30:26.199Z,12.53
2023-01-15T21:32:53.573Z,16.47
2023-01-15T21:35:20.999Z,11.63
2023-01-15T21:37:51.445Z,12.57
2023-01-15T21:40:18.973Z,13.03
2023-01-15T21:43:05.123Z,15.37
2023-01-15T21:45:32.456Z,13.60
2023-01-15T21:48:00.156Z,13.33
2023-01-15T21:50:27.487Z,12.53
2023-01-15T21:52:54.975Z,13.37
2023-01-15T21:55:22.290Z,10.97
2023-01-15T21:57:51.498Z,12.40
2023-01-15T22:00:20.985Z,10.13
2023-01-15T22:02:49.467Z,9.23
2023-01-15T22:05:16.878Z,9.90
2023-01-15T22:07:44.476Z,13.53
2023-01-15T22:10:12.786Z,11.83
2023-01-15T22:12:43.092Z,13.87
2023-01-15T22:15:11.837Z,11.07
2023-01-15T22:17:39.461Z,10.83
2023-01-15T22:20:07.302Z,10.43
2023-01-15T22:22:36.545Z,10.40
2023-01-15T22:25:05.707Z,10.97
2023-01-15T22:27:34.647Z,11.43
2023-01-15T22:30:02.040Z,12.53
2023-01-15T22:32:29.401Z,12.07
2023-01-15T22:34:56.811Z,10.33
2023-01-15T22:37:24.189Z,10.47
2023-01-15T22:39:52.510Z,11.23
2023-01-15T22:42:27.538Z,10.93
2023-01-15T22:44:56.131Z,10.87
2023-01-15T22:47:23.823Z,11.00
2023-01-15T22:49:51.291Z,10.90
2023-01-15T22:52:18.754Z,12.53
2023-01-15T22:54:46.951Z,10.30
2023-01-15T22:57:14.440Z,11.37
2023-01-15T22:59:45.057Z,9.23
2023-01-15T23:02:14.521Z,10.73
2023-01-15T23:04:42.027Z,10.30
2023-01-15T23:07:10.184Z,9.30
2023-01-15T23:09:37.607Z,9.97
2023-01-15T23:12:04.991Z,9.23
2023-01-15T23:14:32.290Z,9.53
2023-01-15T23:16:59.781Z,11.97
2023-01-15T23:19:28.228Z,8.70
2023-01-15T23:21:55.823Z,11.10
2023-01-15T23:24:23.370Z,9.60
2023-01-15T23:26:50.674Z,11.80
2023-01-15T23:29:18.029Z,9.37
2023-01-15T23:31:45.345Z,10.00
2023-01-15T23:34:13.657Z,11.13
2023-01-15T23:36:41.059Z,9.23
2023-01-15T23:39:08.467Z,9.33
2023-01-15T23:41:54.394Z,10.57
2023-01-15T23:44:40.720Z,9.73
2023-01-15T23:47:08.654Z,10.30
2023-01-15T23:49:36.019Z,10.90
2023-01-15T23:52:03.555Z,9.80
2023-01-15T23:54:31.724Z,10.33
2023-01-15T23:57:00.219Z,8.93
2023-01-15T23:59:28.066Z,10.73
